Aérodrome :
LOGIN :

S'inscrire | Disclaimer

   EN    FR    IT 

 










Légende :    VFR   VFR Marginal   IFR   IFR Intensif   IFR Très Intensif
Visi : 
Plafond : 
>= 8 km
>= 3000ft
5 à 8 km
1000 à 3000 ft
1500m à 5 km
500 à 1000 ft
800 à 1500m
200 à 500 ft
< 800m
< 200 ft
Symboles :   Orages  Brouillard  Fortes neiges  Fortes précipitations  Vent > 20 kt
SIGMETs :   Divers  Orages  Givrage  Turbulence  Onde Orograph.  Cendres Volcan.






- Altitude de l'aérodrome : 821 ft
- Code IATA : LYS


LFLL - Lyon St Exupéry / Satolas

DERNIER METAR :
  • 240230Z 00000KT 0800 0450N R35L/1000N R17R/0700U R35R/1000U R17L/1100N FZFG VV/// M02/M02 Q1024 NOSIG

METARs EXPIRÉS :
  • 240200Z VRB02KT 0750 0350N R35L/1900N R17R/0400U R35R/1200U R17L/0650N FZFG VV/// M03/M03 Q1024 NOSIG
  • 240130Z VRB02KT 0300 R35L/0400N R17R/0250N R35R/0350N R17L/0300N FZFG VV/// M02/M02 Q1025 NOSIG
  • 240100Z 00000KT 0250 R35L/0450N R17R/0300N R35R/0325N R17L/0325N FZFG VV/// M02/M02 Q1025 NOSIG
  • 240030Z VRB02KT 0350 R35L/0600N R17R/0275N R35R/0450N R17L/0350N FZFG VV/// M02/M02 Q1025 NOSIG
  • 240000Z 08003KT 0400 R35L/0550U R17R/0300N R35R/0400N R17L/0400N FZFG VV/// M02/M03 Q1025 NOSIG

TAF TAF LFLL
Valide du 24 à 00h jusqu'au 25 à 06h UTC


232300Z 2400/2506 VRB02KT 0800 FG OVC002
TEMPO 2400/2409 0300 FG VV///
PROB40
TEMPO 2400/2408 FZFG
BECMG 2409/2411 4000 BR SCT002
BECMG 2412/2414 6000 NSW NSC
TEMPO 2418/2506 2000 BR
PROB40
TEMPO 2419/2506 0300 FG VV///



MET'MAP, la Météo Aéronautique d'un coup d'oeil ! - Copyright ORBIFLY Décembre 2007 - Disclaimer

ORBIFLY MET'MAP TEAM :

Programmation & Développement : Alexandra Zaïnal
Sur une idée originale de : Baudouin d'Aumeries
Assistance à la programmation : Marc-Olivier Méhu
Soutien technique & logistique : Manuel Goepfert

Contact : metmap@orbifly.com




SOURCES & CREDITS :

   NOAA